createdAt,value
2022-11-08T00:03:10.766Z,0.00
2022-11-08T00:08:42.407Z,1.00
2022-11-08T00:14:14.203Z,1.00
2022-11-08T00:19:45.987Z,0.00
2022-11-08T00:25:17.729Z,1.00
2022-11-08T00:36:21.305Z,0.00
2022-11-08T00:38:32.994Z,0.00
2022-11-08T00:44:04.964Z,0.00
2022-11-08T00:49:36.585Z,0.00
2022-11-08T00:55:08.275Z,1.00
2022-11-08T01:00:40.108Z,0.00
2022-11-08T01:06:11.861Z,1.00
2022-11-08T01:11:44.195Z,1.00
2022-11-08T01:17:15.941Z,0.00
2022-11-08T01:22:47.658Z,1.00
2022-11-08T01:28:19.794Z,1.00
2022-11-08T01:33:51.905Z,1.00
2022-11-08T01:39:23.098Z,1.00
2022-11-08T01:44:54.767Z,0.00
2022-11-08T01:50:26.726Z,0.00
2022-11-08T01:55:58.510Z,1.00
2022-11-08T02:01:30.754Z,0.00
2022-11-08T02:07:02.571Z,0.00
2022-11-08T02:12:34.698Z,1.00
2022-11-08T02:18:06.558Z,0.00
2022-11-08T02:23:37.908Z,0.00
2022-11-08T02:29:09.275Z,1.00
2022-11-08T02:34:41.314Z,0.00
2022-11-08T02:45:47.324Z,1.00
2022-11-08T02:51:19.288Z,0.00
2022-11-08T02:56:50.829Z,0.00
2022-11-08T03:02:22.881Z,0.00
2022-11-08T03:07:56.237Z,1.00
2022-11-08T03:13:28.219Z,0.00
2022-11-08T03:18:59.856Z,0.00
2022-11-08T03:24:31.760Z,0.00
2022-11-08T03:30:03.499Z,0.00
2022-11-08T03:35:35.455Z,1.00
2022-11-08T03:41:06.986Z,0.00
2022-11-08T03:46:38.758Z,0.00
2022-11-08T03:52:10.464Z,0.00
2022-11-08T03:57:42.290Z,0.00
2022-11-08T04:08:43.465Z,0.00
2022-11-08T04:19:46.994Z,1.00
2022-11-08T04:25:18.652Z,0.00
2022-11-08T04:30:50.898Z,1.00
2022-11-08T04:36:22.694Z,1.00
2022-11-08T04:41:59.187Z,0.00
2022-11-08T04:47:26.179Z,1.00
2022-11-08T04:52:57.914Z,1.00
2022-11-08T04:58:29.792Z,1.00
2022-11-08T05:04:01.664Z,1.00
2022-11-08T05:09:33.340Z,1.00
2022-11-08T05:15:05.302Z,1.00
2022-11-08T05:20:37.021Z,1.00
2022-11-08T05:26:08.922Z,3.00
2022-11-08T05:31:40.651Z,8.00
2022-11-08T05:37:12.317Z,21.00
2022-11-08T05:42:44.306Z,60.00
2022-11-08T05:48:16.169Z,167.00
2022-11-08T05:59:17.126Z,870.00
2022-11-08T06:04:48.913Z,1305.00
2022-11-08T06:10:20.848Z,2020.00
2022-11-08T06:15:52.586Z,2870.00
2022-11-08T06:21:26.438Z,4068.00
2022-11-08T06:26:58.349Z,5206.00
2022-11-08T06:32:29.998Z,36025.00
2022-11-08T06:38:04.584Z,37889.00
2022-11-08T06:43:33.847Z,37889.00
2022-11-08T06:49:05.932Z,37889.00
2022-11-08T06:54:37.827Z,37889.00
2022-11-08T07:00:09.878Z,37889.00
2022-11-08T07:05:41.453Z,37889.00
2022-11-08T07:11:19.527Z,32955.00
2022-11-08T07:16:53.340Z,37889.00
2022-11-08T07:22:25.548Z,37889.00
2022-11-08T07:27:59.571Z,37889.00
2022-11-08T07:33:31.302Z,37889.00
2022-11-08T07:39:06.662Z,37889.00
2022-11-08T07:44:36.118Z,37889.00
2022-11-08T07:50:08.225Z,37889.00
2022-11-08T07:55:40.103Z,37889.00
2022-11-08T08:01:11.805Z,37889.00
2022-11-08T08:06:43.519Z,31300.00
2022-11-08T08:12:15.326Z,22141.00
2022-11-08T08:17:47.224Z,22022.00
2022-11-08T08:23:19.249Z,20788.00
2022-11-08T08:28:50.492Z,23006.00
2022-11-08T08:34:22.310Z,21806.00
2022-11-08T08:39:54.768Z,20906.00
2022-11-08T08:45:26.797Z,21500.00
2022-11-08T08:50:58.652Z,20304.00
2022-11-08T08:56:30.926Z,20806.00
2022-11-08T09:02:02.458Z,20747.00
2022-11-08T09:07:34.439Z,23364.00
2022-11-08T09:18:36.164Z,23432.00
2022-11-08T09:24:07.922Z,25141.00
2022-11-08T09:29:39.759Z,22814.00
2022-11-08T09:35:11.514Z,15345.00
2022-11-08T09:46:13.423Z,22224.00
2022-11-08T09:51:45.205Z,21876.00
2022-11-08T09:57:16.858Z,23219.00
2022-11-08T10:02:48.849Z,28702.00
2022-11-08T10:08:20.377Z,23557.00
2022-11-08T10:13:52.460Z,32674.00
2022-11-08T10:19:24.660Z,33590.00
2022-11-08T10:24:56.391Z,34697.00
2022-11-08T10:30:28.105Z,30287.00
2022-11-08T10:36:02.470Z,23882.00
2022-11-08T10:41:32.533Z,21893.00
2022-11-08T10:47:04.009Z,19288.00
2022-11-08T10:52:36.142Z,19563.00
2022-11-08T10:58:07.949Z,24759.00
2022-11-08T11:03:40.107Z,27906.00
2022-11-08T11:09:11.786Z,26321.00
2022-11-08T11:14:43.735Z,23514.00
2022-11-08T11:20:16.069Z,23561.00
2022-11-08T11:25:48.251Z,23007.00
2022-11-08T11:31:20.448Z,23102.00
2022-11-08T11:36:52.321Z,23169.00
2022-11-08T11:42:44.462Z,17201.00
2022-11-08T11:47:56.895Z,17757.00
2022-11-08T11:53:28.651Z,15976.00
2022-11-08T11:59:00.665Z,15971.00
2022-11-08T12:04:32.925Z,14903.00
2022-11-08T12:10:04.616Z,14756.00
2022-11-08T12:15:38.156Z,14101.00
2022-11-08T12:21:10.010Z,13961.00
2022-11-08T12:26:43.846Z,14466.00
2022-11-08T12:32:15.766Z,13854.00
2022-11-08T12:37:47.927Z,13062.00
2022-11-08T12:43:20.128Z,12514.00
2022-11-08T12:48:52.002Z,9687.00
2022-11-08T12:54:23.746Z,12167.00
2022-11-08T12:59:55.573Z,12846.00
2022-11-08T13:05:27.774Z,13089.00
2022-11-08T13:10:59.310Z,14881.00
2022-11-08T13:22:05.353Z,12682.00
2022-11-08T13:27:37.316Z,11895.00
2022-11-08T13:33:13.761Z,11367.00
2022-11-08T13:38:46.747Z,9595.00
2022-11-08T14:14:24.454Z,6538.00
2022-11-08T14:19:56.285Z,7590.00
2022-11-08T14:25:28.156Z,6469.00
2022-11-08T14:30:59.981Z,5974.00
2022-11-08T14:36:31.857Z,6681.00
2022-11-08T14:42:16.790Z,6688.00
2022-11-08T14:53:20.763Z,5824.00
2022-11-08T15:04:25.850Z,5912.00
2022-11-08T15:09:57.810Z,5209.00
2022-11-08T15:15:29.516Z,4573.00
2022-11-08T15:21:01.504Z,3780.00
2022-11-08T15:26:35.292Z,2981.00
2022-11-08T15:40:01.173Z,899.00
2022-11-08T15:45:36.736Z,526.00
2022-11-08T15:56:40.366Z,187.00
2022-11-08T16:02:12.055Z,74.00
2022-11-08T16:10:07.449Z,18.00
2022-11-08T16:26:48.931Z,3.00
2022-11-08T16:32:20.584Z,4.00
2022-11-08T16:37:52.581Z,2.00
2022-11-08T16:43:24.454Z,3.00
2022-11-08T16:48:56.013Z,3.00
2022-11-08T16:54:28.120Z,2.00
2022-11-08T17:05:31.811Z,15.00
2022-11-08T17:11:03.528Z,15.00
2022-11-08T17:16:35.461Z,14.00
2022-11-08T17:22:07.096Z,15.00
2022-11-08T17:33:10.459Z,14.00
2022-11-08T17:38:42.187Z,14.00
2022-11-08T17:44:14.073Z,13.00
2022-11-08T17:49:45.756Z,13.00
2022-11-08T17:55:17.579Z,14.00
2022-11-08T18:00:49.702Z,15.00
2022-11-08T18:06:21.005Z,13.00
2022-11-08T18:11:52.605Z,13.00
2022-11-08T18:17:24.266Z,13.00
2022-11-08T18:22:57.943Z,12.00
2022-11-08T18:28:32.355Z,14.00
2022-11-08T18:39:37.833Z,3.00
2022-11-08T18:50:41.525Z,3.00
2022-11-08T18:56:13.242Z,3.00
2022-11-08T19:01:45.067Z,3.00
2022-11-08T19:07:18.932Z,3.00
2022-11-08T19:12:50.476Z,3.00
2022-11-08T19:18:24.818Z,3.00
2022-11-08T19:23:56.259Z,2.00
2022-11-08T19:29:27.887Z,2.00
2022-11-08T19:34:59.425Z,3.00
2022-11-08T19:40:32.391Z,2.00
2022-11-08T19:46:03.212Z,3.00
2022-11-08T19:51:35.089Z,3.00
2022-11-08T19:57:06.822Z,2.00
2022-11-08T20:02:38.190Z,3.00
2022-11-08T20:08:10.028Z,3.00
2022-11-08T20:13:42.121Z,2.00
2022-11-08T20:19:13.703Z,2.00
2022-11-08T20:24:45.791Z,3.00
2022-11-08T20:30:18.155Z,3.00
2022-11-08T20:32:41.665Z,2.00
2022-11-08T20:38:13.357Z,4.00
2022-11-08T20:43:45.357Z,3.00
2022-11-08T20:49:17.087Z,2.00
2022-11-08T20:54:49.106Z,3.00
2022-11-08T21:00:37.991Z,3.00
2022-11-08T21:05:53.279Z,4.00
2022-11-08T21:11:24.887Z,4.00
2022-11-08T21:22:26.387Z,16.00
2022-11-08T21:33:30.853Z,16.00
2022-11-08T21:44:34.810Z,14.00
2022-11-08T21:50:06.799Z,4.00
2022-11-08T21:55:39.100Z,4.00
2022-11-08T22:01:11.269Z,4.00
2022-11-08T22:06:47.670Z,2.00
2022-11-08T22:12:16.620Z,2.00
2022-11-08T22:23:18.531Z,2.00
2022-11-08T22:34:24.260Z,2.00
2022-11-08T22:39:56.461Z,2.00
2022-11-08T22:47:49.373Z,1.00
2022-11-08T22:53:21.389Z,1.00
2022-11-08T22:58:53.096Z,0.00
2022-11-08T23:09:54.506Z,1.00
2022-11-08T23:15:26.600Z,0.00
2022-11-08T23:20:58.499Z,1.00
2022-11-08T23:26:32.568Z,1.00
2022-11-08T23:37:33.773Z,1.00
2022-11-08T23:48:38.519Z,1.00
2022-11-08T23:54:10.757Z,0.00
2022-11-08T23:59:42.415Z,0.00
